Time;durP1;ratioP1;P1;durP2;ratioP2;P2;SDS_P1;SDS_P2;PMS_P1;PMS_P2;Temp;Humidity;BMP_temperature;BMP_pressure;BME280_temperature;BME280_humidity;BME280_pressure;Samples;Min_cycle;Max_cycle;Signal;HPM_P1;HPM_P2
2023/12/07 00:00:03;;;;;;;20.58;8.55;;;;;;;;;;4931370;29;20048;-63
2023/12/07 00:02:30;;;;;;;14.68;7.20;;;;;;;;;;4928775;29;20035;-63
2023/12/07 00:04:56;;;;;;;27.95;9.45;;;;;;;;;;4925826;29;20051;-63
2023/12/07 00:07:23;;;;;;;18.70;8.13;;;;;;;;;;4928772;29;20507;-64
2023/12/07 00:09:49;;;;;;;14.90;7.35;;;;;;;;;;4925149;29;20043;-63
2023/12/07 00:12:15;;;;;;;15.80;8.15;;;;;;;;;;4933262;29;20059;-64
2023/12/07 00:14:41;;;;;;;21.75;10.32;;;;;;;;;;4932036;29;20419;-63
2023/12/07 00:17:07;;;;;;;14.70;7.28;;;;;;;;;;4932998;29;20051;-65
2023/12/07 00:19:33;;;;;;;16.08;7.97;;;;;;;;;;4923581;29;20048;-64
2023/12/07 00:21:59;;;;;;;15.15;8.02;;;;;;;;;;4930417;29;20036;-65
2023/12/07 00:24:25;;;;;;;17.17;8.30;;;;;;;;;;4930752;29;20040;-64
2023/12/07 00:26:51;;;;;;;13.95;7.40;;;;;;;;;;4924912;29;20054;-62
2023/12/07 00:29:17;;;;;;;15.25;7.93;;;;;;;;;;4926238;29;20060;-64
2023/12/07 00:31:44;;;;;;;15.45;7.55;;;;;;;;;;4923419;29;20035;-63
2023/12/07 00:34:10;;;;;;;16.90;7.60;;;;;;;;;;4928124;29;20044;-64
2023/12/07 00:36:36;;;;;;;14.02;7.30;;;;;;;;;;4919312;29;20035;-63
2023/12/07 00:39:04;;;;;;;14.07;7.28;;;;;;;;;;4930914;28;20047;-63
2023/12/07 00:41:30;;;;;;;17.88;8.13;;;;;;;;;;4932636;29;20036;-62
2023/12/07 00:43:56;;;;;;;14.55;7.65;;;;;;;;;;4933547;29;20494;-63
2023/12/07 00:46:22;;;;;;;14.55;7.32;;;;;;;;;;4930420;29;20403;-64
2023/12/07 00:48:48;;;;;;;14.10;6.78;;;;;;;;;;4930228;29;20400;-64
2023/12/07 00:51:15;;;;;;;11.98;7.05;;;;;;;;;;4936110;29;20488;-63
2023/12/07 00:53:41;;;;;;;13.00;7.22;;;;;;;;;;4938215;28;20050;-64
2023/12/07 00:56:07;;;;;;;12.80;7.13;;;;;;;;;;4931337;29;20043;-64
2023/12/07 00:58:33;;;;;;;13.75;6.10;;;;;;;;;;4934285;29;20055;-64
2023/12/07 01:01:00;;;;;;;10.80;5.93;;;;;;;;;;4931186;29;20637;-64
2023/12/07 01:03:26;;;;;;;14.57;7.00;;;;;;;;;;4937100;29;20050;-63
2023/12/07 01:05:52;;;;;;;11.55;6.45;;;;;;;;;;4937689;29;20416;-63
2023/12/07 01:08:18;;;;;;;14.75;6.78;;;;;;;;;;4935784;29;20066;-62
2023/12/07 01:10:44;;;;;;;14.38;7.05;;;;;;;;;;4935491;28;20043;-62
2023/12/07 01:13:10;;;;;;;15.60;7.70;;;;;;;;;;4935783;29;20039;-62
2023/12/07 01:15:36;;;;;;;12.73;6.25;;;;;;;;;;4936323;29;20071;-62
2023/12/07 01:18:03;;;;;;;9.80;5.55;;;;;;;;;;4931987;29;20718;-63
2023/12/07 01:20:29;;;;;;;10.05;5.90;;;;;;;;;;4937567;29;20151;-63
2023/12/07 01:22:55;;;;;;;10.05;5.38;;;;;;;;;;4940578;29;20071;-63
2023/12/07 01:25:21;;;;;;;7.85;4.78;;;;;;;;;;4941436;29;20039;-62
2023/12/07 01:27:48;;;;;;;10.10;5.45;;;;;;;;;;4933999;29;20027;-63
2023/12/07 01:30:14;;;;;;;8.07;5.00;;;;;;;;;;4936830;29;20404;-63
2023/12/07 01:32:40;;;;;;;9.63;5.10;;;;;;;;;;4927255;29;20052;-63
2023/12/07 01:35:07;;;;;;;11.35;5.50;;;;;;;;;;4934540;29;20039;-62
2023/12/07 01:37:33;;;;;;;10.55;4.93;;;;;;;;;;4936491;29;20054;-63
2023/12/07 01:39:59;;;;;;;13.20;5.38;;;;;;;;;;4934819;29;20067;-62
2023/12/07 01:42:25;;;;;;;10.05;5.53;;;;;;;;;;4933474;29;20067;-62
2023/12/07 01:44:52;;;;;;;10.80;5.75;;;;;;;;;;4936806;28;20111;-63
2023/12/07 01:47:19;;;;;;;16.83;7.13;;;;;;;;;;4933201;29;20147;-63
2023/12/07 01:49:45;;;;;;;14.13;6.85;;;;;;;;;;4933879;29;20393;-63
2023/12/07 01:52:11;;;;;;;12.43;6.38;;;;;;;;;;4935300;29;20036;-63
2023/12/07 01:54:38;;;;;;;10.88;6.32;;;;;;;;;;4938747;29;20043;-63
2023/12/07 01:57:05;;;;;;;16.30;7.60;;;;;;;;;;4929386;29;20051;-63
2023/12/07 01:59:31;;;;;;;14.93;6.93;;;;;;;;;;4934025;29;20503;-63
2023/12/07 02:01:57;;;;;;;17.00;8.35;;;;;;;;;;4933666;29;20055;-63
2023/12/07 02:04:23;;;;;;;14.77;8.30;;;;;;;;;;4936232;29;20048;-63
2023/12/07 02:06:50;;;;;;;15.68;8.00;;;;;;;;;;4929129;29;20407;-63
2023/12/07 02:09:16;;;;;;;17.23;8.32;;;;;;;;;;4936616;29;20059;-63
2023/12/07 02:11:42;;;;;;;17.75;8.43;;;;;;;;;;4934213;29;20059;-64
2023/12/07 02:14:08;;;;;;;15.77;7.28;;;;;;;;;;4936837;29;20035;-63
2023/12/07 02:16:44;;;;;;;15.88;7.40;;;;;;;;;;4937578;29;20036;-64
2023/12/07 02:19:41;;;;;;;13.38;6.60;;;;;;;;;;4934391;29;20038;-64
2023/12/07 02:22:14;;;;;;;11.20;6.63;;;;;;;;;;4938075;29;20052;-64
2023/12/07 02:24:45;;;;;;;10.60;6.18;;;;;;;;;;4937714;28;20443;-63
2023/12/07 02:27:11;;;;;;;12.82;6.45;;;;;;;;;;4926630;29;20051;-63
2023/12/07 02:29:37;;;;;;;15.38;7.85;;;;;;;;;;4935828;29;20407;-63
2023/12/07 02:32:04;;;;;;;13.32;7.55;;;;;;;;;;4931080;29;20058;-63
2023/12/07 02:34:30;;;;;;;12.73;6.80;;;;;;;;;;4935655;29;20047;-63
2023/12/07 02:36:58;;;;;;;16.23;7.25;;;;;;;;;;4932537;29;20043;-63
2023/12/07 02:39:25;;;;;;;11.13;6.75;;;;;;;;;;4934102;29;20040;-64
2023/12/07 02:41:53;;;;;;;12.90;6.43;;;;;;;;;;4934083;29;20081;-63
2023/12/07 02:44:19;;;;;;;13.43;6.60;;;;;;;;;;4934202;29;20419;-63
2023/12/07 02:46:45;;;;;;;12.10;6.80;;;;;;;;;;4934838;29;20042;-64
2023/12/07 02:49:11;;;;;;;12.43;5.80;;;;;;;;;;4933402;29;20092;-63
2023/12/07 02:51:37;;;;;;;11.27;5.35;;;;;;;;;;4931636;29;20043;-64
2023/12/07 02:54:03;;;;;;;11.35;5.47;;;;;;;;;;4930139;29;20427;-63
2023/12/07 02:56:29;;;;;;;11.60;5.90;;;;;;;;;;4928721;29;20047;-63
2023/12/07 02:58:55;;;;;;;9.60;5.30;;;;;;;;;;4932490;29;20039;-62
2023/12/07 03:01:21;;;;;;;9.38;5.20;;;;;;;;;;4935648;29;20047;-63
2023/12/07 03:03:47;;;;;;;10.23;5.18;;;;;;;;;;4931685;29;20043;-64
2023/12/07 03:06:15;;;;;;;9.48;5.35;;;;;;;;;;4939393;29;20054;-63
2023/12/07 03:08:41;;;;;;;12.02;5.93;;;;;;;;;;4932988;29;20071;-65
2023/12/07 03:11:07;;;;;;;9.38;5.22;;;;;;;;;;4940166;29;20047;-63
2023/12/07 03:13:33;;;;;;;12.05;5.43;;;;;;;;;;4937435;28;20435;-65
2023/12/07 03:15:59;;;;;;;13.43;5.45;;;;;;;;;;4931896;29;20487;-63
2023/12/07 03:18:25;;;;;;;10.55;5.28;;;;;;;;;;4935226;29;20067;-65
2023/12/07 03:20:51;;;;;;;10.00;5.43;;;;;;;;;;4935050;29;20036;-63
2023/12/07 03:23:17;;;;;;;10.70;6.05;;;;;;;;;;4937528;29;20854;-64
2023/12/07 03:25:43;;;;;;;10.77;5.25;;;;;;;;;;4930329;29;20067;-64
2023/12/07 03:28:09;;;;;;;12.55;5.82;;;;;;;;;;4930614;29;20056;-64
2023/12/07 03:30:35;;;;;;;12.20;6.05;;;;;;;;;;4927365;29;20038;-63
2023/12/07 03:33:01;;;;;;;11.70;5.95;;;;;;;;;;4934766;29;20035;-63
2023/12/07 03:35:27;;;;;;;11.48;6.03;;;;;;;;;;4932670;29;20044;-62
2023/12/07 03:37:54;;;;;;;11.13;5.38;;;;;;;;;;4934646;29;20044;-63
2023/12/07 03:40:20;;;;;;;12.25;5.53;;;;;;;;;;4933899;29;20036;-63
2023/12/07 03:42:46;;;;;;;10.75;5.50;;;;;;;;;;4932707;28;20511;-63
2023/12/07 03:45:12;;;;;;;10.23;5.72;;;;;;;;;;4932597;29;20427;-63
2023/12/07 03:47:38;;;;;;;10.68;5.18;;;;;;;;;;4935238;29;20063;-63
2023/12/07 03:50:04;;;;;;;11.88;5.47;;;;;;;;;;4935564;29;20105;-63
2023/12/07 03:52:31;;;;;;;9.77;5.25;;;;;;;;;;4932962;29;20036;-63
2023/12/07 03:54:57;;;;;;;11.05;5.40;;;;;;;;;;4930827;29;20499;-63
2023/12/07 03:57:23;;;;;;;10.15;5.22;;;;;;;;;;4934701;29;20534;-64
2023/12/07 03:59:49;;;;;;;12.38;6.28;;;;;;;;;;4931760;29;20051;-63
2023/12/07 04:02:15;;;;;;;12.48;5.68;;;;;;;;;;4930257;29;20047;-63
2023/12/07 04:04:42;;;;;;;11.48;5.25;;;;;;;;;;4935159;29;20060;-63
2023/12/07 04:07:08;;;;;;;9.63;5.25;;;;;;;;;;4931389;29;20031;-63
2023/12/07 04:09:34;;;;;;;9.15;4.80;;;;;;;;;;4933470;29;20052;-63
2023/12/07 04:12:00;;;;;;;10.57;5.13;;;;;;;;;;4934022;29;20047;-64
2023/12/07 04:14:26;;;;;;;11.20;5.43;;;;;;;;;;4935703;28;20495;-64
2023/12/07 04:16:52;;;;;;;14.43;5.65;;;;;;;;;;4938448;29;20040;-63
2023/12/07 04:19:18;;;;;;;12.65;6.20;;;;;;;;;;4940278;29;20039;-64
2023/12/07 04:21:44;;;;;;;10.30;5.55;;;;;;;;;;4931741;29;20051;-64
2023/12/07 04:24:10;;;;;;;10.35;5.28;;;;;;;;;;4936538;29;20051;-64
2023/12/07 04:26:36;;;;;;;13.95;6.03;;;;;;;;;;4935327;29;20055;-64
2023/12/07 04:29:02;;;;;;;13.07;6.00;;;;;;;;;;4935564;29;20055;-64
2023/12/07 04:31:28;;;;;;;14.02;6.60;;;;;;;;;;4933858;29;20043;-64
2023/12/07 04:33:54;;;;;;;14.63;6.20;;;;;;;;;;4936716;28;20055;-64
2023/12/07 04:36:20;;;;;;;17.58;7.15;;;;;;;;;;4936182;29;20055;-63
2023/12/07 04:38:46;;;;;;;13.63;6.78;;;;;;;;;;4930888;29;20511;-63
2023/12/07 04:41:12;;;;;;;14.80;6.47;;;;;;;;;;4938358;29;20062;-62
2023/12/07 04:43:39;;;;;;;12.07;6.50;;;;;;;;;;4931981;29;20051;-62
2023/12/07 04:46:05;;;;;;;13.80;6.65;;;;;;;;;;4933726;29;20039;-64
2023/12/07 04:48:31;;;;;;;12.23;6.28;;;;;;;;;;4938080;29;20507;-63
2023/12/07 04:50:57;;;;;;;13.77;6.20;;;;;;;;;;4939102;29;20062;-64
2023/12/07 04:53:24;;;;;;;18.98;8.25;;;;;;;;;;4938617;29;20388;-64
2023/12/07 04:55:50;;;;;;;22.17;8.80;;;;;;;;;;4936049;29;20032;-63
2023/12/07 04:58:16;;;;;;;15.70;6.75;;;;;;;;;;4935869;29;20035;-63
2023/12/07 05:00:42;;;;;;;12.70;5.97;;;;;;;;;;4936079;29;20161;-63
2023/12/07 05:03:09;;;;;;;13.60;6.95;;;;;;;;;;4938109;29;20023;-63
2023/12/07 05:05:36;;;;;;;13.98;6.60;;;;;;;;;;4938243;29;20070;-62
2023/12/07 05:08:02;;;;;;;12.15;6.35;;;;;;;;;;4933923;29;20395;-62
2023/12/07 05:10:29;;;;;;;12.82;6.05;;;;;;;;;;4932530;29;20139;-62
2023/12/07 05:12:56;;;;;;;14.02;6.30;;;;;;;;;;4933717;29;20052;-63
2023/12/07 05:15:22;;;;;;;11.55;5.57;;;;;;;;;;4935437;29;20052;-62
2023/12/07 05:17:49;;;;;;;12.88;5.57;;;;;;;;;;4934094;29;20412;-62
2023/12/07 05:20:15;;;;;;;10.55;5.78;;;;;;;;;;4934429;29;20052;-65
2023/12/07 05:22:41;;;;;;;11.05;6.13;;;;;;;;;;4930748;29;20043;-62
2023/12/07 05:25:08;;;;;;;11.65;6.05;;;;;;;;;;4936331;29;20032;-62
2023/12/07 05:27:34;;;;;;;9.77;6.05;;;;;;;;;;4935799;29;20059;-64
2023/12/07 05:30:01;;;;;;;15.75;6.57;;;;;;;;;;4935362;29;20043;-63
2023/12/07 05:32:27;;;;;;;11.45;5.82;;;;;;;;;;4930489;29;20051;-62
2023/12/07 05:34:53;;;;;;;12.52;5.68;;;;;;;;;;4936980;29;20496;-63
2023/12/07 05:37:19;;;;;;;11.35;6.20;;;;;;;;;;4936893;29;20059;-63
2023/12/07 05:39:45;;;;;;;20.00;7.65;;;;;;;;;;4933604;29;20063;-63
2023/12/07 05:42:12;;;;;;;13.95;6.97;;;;;;;;;;4934769;29;20056;-64
2023/12/07 05:44:38;;;;;;;13.15;6.07;;;;;;;;;;4937913;29;20076;-63
2023/12/07 05:47:04;;;;;;;10.48;5.18;;;;;;;;;;4934557;29;20415;-64
2023/12/07 05:49:30;;;;;;;12.80;5.78;;;;;;;;;;4938233;29;20055;-62
2023/12/07 05:51:56;;;;;;;14.60;5.97;;;;;;;;;;4934299;29;20491;-62
2023/12/07 05:54:22;;;;;;;10.05;4.78;;;;;;;;;;4938043;29;20032;-63
2023/12/07 05:56:49;;;;;;;11.85;5.80;;;;;;;;;;4940765;28;20047;-64
2023/12/07 05:59:15;;;;;;;12.48;5.25;;;;;;;;;;4940799;29;20028;-63
2023/12/07 06:01:43;;;;;;;12.25;5.43;;;;;;;;;;4940282;29;20050;-63
2023/12/07 06:04:12;;;;;;;12.85;6.00;;;;;;;;;;4939850;29;20038;-63
2023/12/07 06:06:38;;;;;;;22.42;10.43;;;;;;;;;;4937725;29;20039;-62
2023/12/07 06:09:08;;;;;;;12.98;7.32;;;;;;;;;;4934107;29;20051;-60
2023/12/07 06:11:34;;;;;;;11.82;5.78;;;;;;;;;;4935605;29;20065;-61
2023/12/07 06:14:01;;;;;;;19.25;9.20;;;;;;;;;;4934713;29;20039;-63
2023/12/07 06:16:27;;;;;;;15.68;7.78;;;;;;;;;;4934095;29;20043;-62
2023/12/07 06:18:53;;;;;;;16.77;7.07;;;;;;;;;;4933697;29;20055;-61
2023/12/07 06:21:20;;;;;;;25.88;11.30;;;;;;;;;;4934604;29;20043;-61
2023/12/07 06:23:46;;;;;;;16.90;8.02;;;;;;;;;;4934782;29;20051;-61
2023/12/07 06:26:12;;;;;;;12.50;5.78;;;;;;;;;;4935165;29;20480;-61
2023/12/07 06:28:38;;;;;;;14.05;7.43;;;;;;;;;;4933947;29;20036;-61
2023/12/07 06:31:06;;;;;;;17.55;8.95;;;;;;;;;;4933406;29;20054;-61
2023/12/07 06:33:34;;;;;;;11.98;6.30;;;;;;;;;;4922818;29;20055;-62
2023/12/07 06:36:03;;;;;;;11.20;5.88;;;;;;;;;;4930734;29;20051;-61
2023/12/07 06:38:29;;;;;;;11.18;6.13;;;;;;;;;;4926592;29;20400;-62
2023/12/07 06:40:56;;;;;;;10.75;4.88;;;;;;;;;;4930988;29;20096;-61
2023/12/07 06:43:22;;;;;;;11.98;6.95;;;;;;;;;;4930644;29;20051;-62
2023/12/07 06:45:48;;;;;;;15.32;8.25;;;;;;;;;;4931306;29;20054;-64
2023/12/07 06:48:15;;;;;;;16.52;9.65;;;;;;;;;;4934010;29;20052;-62
2023/12/07 06:50:41;;;;;;;23.55;12.15;;;;;;;;;;4926083;29;20040;-62
2023/12/07 06:53:07;;;;;;;22.58;10.85;;;;;;;;;;4928563;29;20067;-59
2023/12/07 06:55:33;;;;;;;16.42;8.95;;;;;;;;;;4916746;29;20043;-65
2023/12/07 06:57:59;;;;;;;17.08;8.88;;;;;;;;;;4919800;29;20032;-59
2023/12/07 07:00:26;;;;;;;18.73;9.20;;;;;;;;;;4917745;29;20176;-60
2023/12/07 07:02:52;;;;;;;21.58;10.05;;;;;;;;;;4924889;29;20058;-61
2023/12/07 07:05:18;;;;;;;18.58;9.32;;;;;;;;;;4927668;29;20051;-62
2023/12/07 07:07:44;;;;;;;15.35;8.68;;;;;;;;;;4932199;29;20039;-61
2023/12/07 07:10:12;;;;;;;18.23;8.77;;;;;;;;;;4933770;29;20040;-60
2023/12/07 07:12:38;;;;;;;17.67;8.52;;;;;;;;;;4931932;29;20063;-61
2023/12/07 07:15:07;;;;;;;17.77;9.38;;;;;;;;;;4937097;29;20055;-61
2023/12/07 07:17:33;;;;;;;13.80;7.03;;;;;;;;;;4920070;29;20435;-61
2023/12/07 07:19:59;;;;;;;13.73;6.50;;;;;;;;;;4923959;29;20795;-63
2023/12/07 07:22:25;;;;;;;11.55;6.05;;;;;;;;;;4915489;29;20507;-63
2023/12/07 07:24:52;;;;;;;11.75;6.18;;;;;;;;;;4924911;29;20054;-61
2023/12/07 07:27:18;;;;;;;9.93;5.05;;;;;;;;;;4925560;29;20047;-61
2023/12/07 07:29:44;;;;;;;11.95;4.95;;;;;;;;;;4923253;29;20055;-61
2023/12/07 07:32:10;;;;;;;11.45;5.30;;;;;;;;;;4921195;29;20032;-57
2023/12/07 07:34:37;;;;;;;13.00;5.40;;;;;;;;;;4927095;29;20051;-58
2023/12/07 07:37:03;;;;;;;9.23;4.43;;;;;;;;;;4933605;29;20444;-59
2023/12/07 07:39:30;;;;;;;14.25;5.35;;;;;;;;;;4933018;29;20047;-59
2023/12/07 07:41:56;;;;;;;9.23;4.90;;;;;;;;;;4931631;29;20056;-58
2023/12/07 07:44:22;;;;;;;9.90;5.13;;;;;;;;;;4932601;29;20036;-58
2023/12/07 07:46:48;;;;;;;11.38;5.72;;;;;;;;;;4932394;29;20050;-59
2023/12/07 07:49:14;;;;;;;11.27;5.65;;;;;;;;;;4932589;29;20035;-59
2023/12/07 07:51:40;;;;;;;12.50;6.85;;;;;;;;;;4937503;29;20043;-58
2023/12/07 07:54:06;;;;;;;14.60;8.13;;;;;;;;;;4938570;29;20399;-59
2023/12/07 07:56:32;;;;;;;13.98;7.28;;;;;;;;;;4932436;29;20050;-57
2023/12/07 07:59:00;;;;;;;12.00;5.03;;;;;;;;;;4938731;29;20039;-59
2023/12/07 08:01:26;;;;;;;9.00;4.38;;;;;;;;;;4935336;29;20502;-58
2023/12/07 08:03:52;;;;;;;8.45;4.22;;;;;;;;;;4933477;29;20039;-58
2023/12/07 08:06:18;;;;;;;8.40;4.70;;;;;;;;;;4930517;29;20082;-60
2023/12/07 08:08:45;;;;;;;11.05;4.90;;;;;;;;;;4931724;29;20439;-59
2023/12/07 08:11:14;;;;;;;10.63;5.40;;;;;;;;;;4931656;29;20048;-59
2023/12/07 08:13:40;;;;;;;7.75;4.68;;;;;;;;;;4932256;29;20050;-58
2023/12/07 08:16:09;;;;;;;8.65;4.40;;;;;;;;;;4932204;29;20036;-60
2023/12/07 08:18:36;;;;;;;10.70;5.38;;;;;;;;;;4927652;29;20199;-57
2023/12/07 08:21:02;;;;;;;10.75;5.35;;;;;;;;;;4930911;29;20028;-58
2023/12/07 08:23:28;;;;;;;11.82;6.05;;;;;;;;;;4933989;29;20044;-58
2023/12/07 08:25:57;;;;;;;13.77;5.78;;;;;;;;;;4931182;29;20423;-58
2023/12/07 08:28:23;;;;;;;15.48;8.05;;;;;;;;;;4932450;29;20055;-59
2023/12/07 08:30:49;;;;;;;19.23;8.50;;;;;;;;;;4932170;29;20063;-59
2023/12/07 08:33:15;;;;;;;25.35;11.80;;;;;;;;;;4933519;29;20360;-58
2023/12/07 08:35:41;;;;;;;35.05;14.43;;;;;;;;;;4934563;29;20584;-58
2023/12/07 08:38:07;;;;;;;30.77;14.50;;;;;;;;;;4930581;29;20036;-58
2023/12/07 08:40:33;;;;;;;27.40;15.00;;;;;;;;;;4929868;29;20440;-57
2023/12/07 08:42:59;;;;;;;29.80;14.32;;;;;;;;;;4928980;29;20052;-58
2023/12/07 08:45:25;;;;;;;29.38;14.77;;;;;;;;;;4938769;29;20047;-57
2023/12/07 08:47:51;;;;;;;35.05;17.02;;;;;;;;;;4932580;28;20050;-58
2023/12/07 08:50:17;;;;;;;27.10;14.05;;;;;;;;;;4937520;29;20040;-57
2023/12/07 08:52:44;;;;;;;27.92;14.32;;;;;;;;;;4935475;29;20484;-58
2023/12/07 08:55:10;;;;;;;26.13;14.40;;;;;;;;;;4936933;29;20055;-57
2023/12/07 08:57:37;;;;;;;28.20;13.98;;;;;;;;;;4934617;28;20051;-58
2023/12/07 09:00:04;;;;;;;24.58;13.40;;;;;;;;;;4927344;29;20050;-58
2023/12/07 09:02:30;;;;;;;24.85;11.68;;;;;;;;;;4932780;29;20391;-59
2023/12/07 09:04:56;;;;;;;22.65;10.35;;;;;;;;;;4932136;29;20404;-58
2023/12/07 09:07:22;;;;;;;18.20;10.10;;;;;;;;;;4933569;29;20144;-59
2023/12/07 09:09:48;;;;;;;19.77;10.50;;;;;;;;;;4918315;29;20054;-57
2023/12/07 09:12:15;;;;;;;19.65;11.52;;;;;;;;;;4925085;29;20039;-58
2023/12/07 09:14:42;;;;;;;18.88;10.38;;;;;;;;;;4929532;29;20420;-58
2023/12/07 09:17:08;;;;;;;17.80;9.88;;;;;;;;;;4930825;29;20031;-58
2023/12/07 09:19:34;;;;;;;19.00;11.27;;;;;;;;;;4926936;29;20500;-58
2023/12/07 09:22:00;;;;;;;23.42;10.57;;;;;;;;;;4934367;29;20043;-59
2023/12/07 09:24:26;;;;;;;18.08;10.45;;;;;;;;;;4935709;29;20043;-59
2023/12/07 09:26:52;;;;;;;22.13;11.52;;;;;;;;;;4935463;29;20032;-59
2023/12/07 09:29:19;;;;;;;21.20;10.80;;;;;;;;;;4935436;29;20511;-59
2023/12/07 09:31:45;;;;;;;22.17;10.85;;;;;;;;;;4936854;29;20046;-58
2023/12/07 09:34:17;;;;;;;23.70;12.65;;;;;;;;;;4932817;29;20143;-57
2023/12/07 09:36:45;;;;;;;31.23;14.77;;;;;;;;;;4921161;29;20128;-58
2023/12/07 09:39:11;;;;;;;19.70;11.20;;;;;;;;;;4931494;29;20032;-57
2023/12/07 09:41:39;;;;;;;16.83;10.00;;;;;;;;;;4937903;29;20048;-58
2023/12/07 09:44:06;;;;;;;17.27;10.20;;;;;;;;;;4931898;29;20051;-57
2023/12/07 09:46:32;;;;;;;17.25;10.63;;;;;;;;;;4933099;29;20044;-58
2023/12/07 09:48:59;;;;;;;18.83;10.23;;;;;;;;;;4934781;29;20044;-59
2023/12/07 09:51:26;;;;;;;15.43;9.48;;;;;;;;;;4932917;29;20704;-57
2023/12/07 09:53:52;;;;;;;18.05;10.68;;;;;;;;;;4926632;29;20051;-57
2023/12/07 09:56:18;;;;;;;14.93;8.85;;;;;;;;;;4933889;29;20427;-58
2023/12/07 09:58:45;;;;;;;14.70;7.43;;;;;;;;;;4928691;29;20500;-58
2023/12/07 10:01:13;;;;;;;8.82;6.00;;;;;;;;;;4937152;29;20059;-61
2023/12/07 10:03:39;;;;;;;7.20;5.05;;;;;;;;;;4927439;29;20059;-59
2023/12/07 10:06:06;;;;;;;9.60;5.38;;;;;;;;;;4929297;29;20036;-59
2023/12/07 10:08:37;;;;;;;7.60;5.00;;;;;;;;;;4908670;29;20608;-58
2023/12/07 10:11:11;;;;;;;10.60;5.00;;;;;;;;;;4932473;29;20043;-58
2023/12/07 10:13:38;;;;;;;6.72;3.92;;;;;;;;;;4929260;29;20071;-58
2023/12/07 10:16:15;;;;;;;7.38;3.97;;;;;;;;;;4925541;29;20039;-59
2023/12/07 10:18:41;;;;;;;6.97;4.15;;;;;;;;;;4925883;29;20044;-57
2023/12/07 10:21:09;;;;;;;8.27;4.75;;;;;;;;;;4927038;29;20054;-59
2023/12/07 10:23:36;;;;;;;7.07;4.20;;;;;;;;;;4934131;29;20058;-58
2023/12/07 10:26:04;;;;;;;7.43;4.50;;;;;;;;;;4925393;29;20582;-57
2023/12/07 10:28:31;;;;;;;7.35;4.18;;;;;;;;;;4929870;29;20040;-58
2023/12/07 10:30:58;;;;;;;7.38;3.92;;;;;;;;;;4929349;29;20036;-57
2023/12/07 10:33:26;;;;;;;7.70;4.15;;;;;;;;;;4932286;29;20090;-57
2023/12/07 10:35:52;;;;;;;7.32;4.10;;;;;;;;;;4931634;29;20058;-58
2023/12/07 10:38:19;;;;;;;7.03;3.85;;;;;;;;;;4931850;29;20752;-59
2023/12/07 10:40:47;;;;;;;7.90;4.47;;;;;;;;;;4931355;29;20032;-59
2023/12/07 10:43:15;;;;;;;5.78;3.88;;;;;;;;;;4933191;29;20054;-58
2023/12/07 10:45:43;;;;;;;7.00;4.05;;;;;;;;;;4930795;29;20032;-58
2023/12/07 10:48:10;;;;;;;7.03;3.78;;;;;;;;;;4928283;29;20059;-58
2023/12/07 10:50:46;;;;;;;6.97;4.15;;;;;;;;;;4930326;29;20060;-58
2023/12/07 10:53:26;;;;;;;4.88;3.50;;;;;;;;;;4929278;29;20035;-58
2023/12/07 10:56:00;;;;;;;5.40;3.28;;;;;;;;;;4929129;29;20492;-58
2023/12/07 10:58:26;;;;;;;7.72;4.50;;;;;;;;;;4924359;29;20508;-58
2023/12/07 11:00:53;;;;;;;6.60;3.40;;;;;;;;;;4932413;29;20078;-59
2023/12/07 11:03:21;;;;;;;6.95;3.42;;;;;;;;;;4930917;29;20475;-58
2023/12/07 11:05:48;;;;;;;5.65;3.63;;;;;;;;;;4922382;29;20044;-58
2023/12/07 11:08:23;;;;;;;5.43;3.55;;;;;;;;;;4926819;29;20060;-58
2023/12/07 11:10:59;;;;;;;7.20;4.10;;;;;;;;;;4933439;29;20427;-59
2023/12/07 11:13:35;;;;;;;6.78;3.70;;;;;;;;;;4929336;29;20071;-58
2023/12/07 11:16:03;;;;;;;6.10;3.63;;;;;;;;;;4928984;29;20467;-58
2023/12/07 11:18:29;;;;;;;6.03;3.42;;;;;;;;;;4931761;29;20040;-58
2023/12/07 11:20:56;;;;;;;5.40;3.42;;;;;;;;;;4929993;29;20036;-58
2023/12/07 11:23:23;;;;;;;6.15;3.78;;;;;;;;;;4932164;29;20055;-58
2023/12/07 11:25:51;;;;;;;4.70;3.20;;;;;;;;;;4931763;29;20038;-58
2023/12/07 11:28:17;;;;;;;5.55;2.92;;;;;;;;;;4932991;29;20054;-58
2023/12/07 11:30:46;;;;;;;4.72;3.00;;;;;;;;;;4927729;29;20056;-58
2023/12/07 11:33:14;;;;;;;4.55;2.50;;;;;;;;;;4934525;29;20511;-57
2023/12/07 11:36:02;;;;;;;4.60;3.00;;;;;;;;;;4926355;29;20039;-57
2023/12/07 11:38:29;;;;;;;4.72;3.08;;;;;;;;;;4927512;29;20048;-57
2023/12/07 11:40:56;;;;;;;4.85;2.70;;;;;;;;;;4933226;28;20580;-57
2023/12/07 11:43:40;;;;;;;5.18;2.90;;;;;;;;;;4931818;29;20052;-57
2023/12/07 11:46:07;;;;;;;4.35;2.55;;;;;;;;;;4935594;29;20069;-57
2023/12/07 11:48:33;;;;;;;3.20;2.30;;;;;;;;;;4932731;28;20043;-58
2023/12/07 11:51:01;;;;;;;5.68;2.70;;;;;;;;;;4930597;29;20052;-58
2023/12/07 11:53:32;;;;;;;4.43;2.75;;;;;;;;;;4932147;29;20055;-57
2023/12/07 11:56:00;;;;;;;5.78;2.60;;;;;;;;;;4926538;29;20051;-57
2023/12/07 11:58:28;;;;;;;3.40;2.65;;;;;;;;;;4929738;29;20475;-57
2023/12/07 12:00:56;;;;;;;4.43;2.95;;;;;;;;;;4918312;29;20052;-58
2023/12/07 12:03:23;;;;;;;3.45;2.50;;;;;;;;;;4915481;29;20066;-57
2023/12/07 12:05:50;;;;;;;4.18;2.83;;;;;;;;;;4931683;29;20043;-57
2023/12/07 12:08:17;;;;;;;3.97;2.42;;;;;;;;;;4934229;29;20047;-57
2023/12/07 12:10:44;;;;;;;5.80;3.05;;;;;;;;;;4932204;29;20061;-58
2023/12/07 12:13:11;;;;;;;4.28;2.42;;;;;;;;;;4932607;29;20055;-57
2023/12/07 12:15:40;;;;;;;4.25;3.10;;;;;;;;;;4928984;29;20408;-59
2023/12/07 12:18:07;;;;;;;4.88;3.00;;;;;;;;;;4924524;29;20068;-57
2023/12/07 12:20:33;;;;;;;4.45;2.50;;;;;;;;;;4933265;29;20052;-58
2023/12/07 12:23:02;;;;;;;2.72;1.92;;;;;;;;;;4931758;29;20051;-57
2023/12/07 12:25:30;;;;;;;5.63;2.30;;;;;;;;;;4931776;29;20404;-57
2023/12/07 12:28:00;;;;;;;3.83;2.60;;;;;;;;;;4933166;29;20035;-57
2023/12/07 12:30:28;;;;;;;2.55;2.35;;;;;;;;;;4928943;29;20051;-57
2023/12/07 12:32:55;;;;;;;3.83;2.65;;;;;;;;;;4930608;29;20071;-57
2023/12/07 12:35:21;;;;;;;2.50;2.10;;;;;;;;;;4935303;29;20075;-57
2023/12/07 12:37:48;;;;;;;2.58;2.00;;;;;;;;;;4935589;29;20047;-57
2023/12/07 12:40:19;;;;;;;4.45;2.45;;;;;;;;;;4936788;29;20550;-57
2023/12/07 12:42:47;;;;;;;3.30;1.85;;;;;;;;;;4932890;29;20047;-57
2023/12/07 12:45:14;;;;;;;5.15;2.25;;;;;;;;;;4931869;29;20048;-57
2023/12/07 12:47:42;;;;;;;2.92;1.95;;;;;;;;;;4928396;29;20037;-58
2023/12/07 12:50:31;;;;;;;2.90;2.40;;;;;;;;;;4930840;29;20035;-59
2023/12/07 12:52:58;;;;;;;3.00;1.58;;;;;;;;;;4933569;29;20044;-57
2023/12/07 12:55:28;;;;;;;2.50;1.75;;;;;;;;;;4922292;29;20046;-58
2023/12/07 12:57:56;;;;;;;3.28;2.15;;;;;;;;;;4933433;29;20051;-58
2023/12/07 13:00:25;;;;;;;3.30;2.40;;;;;;;;;;4930366;29;20047;-59
2023/12/07 13:02:51;;;;;;;3.53;2.20;;;;;;;;;;4930347;29;20035;-58
2023/12/07 13:05:17;;;;;;;2.42;1.75;;;;;;;;;;4935078;29;20058;-60
2023/12/07 13:07:45;;;;;;;2.78;1.90;;;;;;;;;;4930906;29;20040;-59
2023/12/07 13:10:11;;;;;;;2.42;2.22;;;;;;;;;;4922069;29;20053;-58
2023/12/07 13:12:37;;;;;;;4.25;2.30;;;;;;;;;;4924935;29;20051;-59
2023/12/07 13:15:04;;;;;;;2.67;2.00;;;;;;;;;;4919463;29;20524;-58
2023/12/07 13:17:30;;;;;;;4.65;2.40;;;;;;;;;;4927164;29;20435;-59
2023/12/07 13:19:56;;;;;;;3.60;2.47;;;;;;;;;;4931404;29;20040;-58
2023/12/07 13:22:22;;;;;;;3.85;2.30;;;;;;;;;;4929380;29;20032;-59
2023/12/07 13:24:49;;;;;;;2.38;1.83;;;;;;;;;;4928037;29;20423;-58
2023/12/07 13:27:16;;;;;;;4.68;2.10;;;;;;;;;;4930666;29;20027;-58
2023/12/07 13:29:42;;;;;;;3.30;2.30;;;;;;;;;;4931604;29;20028;-58
2023/12/07 13:32:09;;;;;;;4.18;2.47;;;;;;;;;;4928135;29;20055;-59
2023/12/07 13:34:35;;;;;;;2.92;2.22;;;;;;;;;;4931847;29;20042;-58
2023/12/07 13:37:02;;;;;;;4.10;2.20;;;;;;;;;;4932176;29;20503;-58
2023/12/07 13:39:29;;;;;;;3.38;2.25;;;;;;;;;;4927167;29;20044;-58
2023/12/07 13:41:55;;;;;;;3.28;2.10;;;;;;;;;;4928967;29;20544;-58
2023/12/07 13:44:24;;;;;;;3.80;1.90;;;;;;;;;;4938131;28;20051;-57
2023/12/07 13:46:50;;;;;;;2.47;2.03;;;;;;;;;;4925823;29;20058;-57
2023/12/07 13:49:16;;;;;;;3.55;2.30;;;;;;;;;;4932035;29;20040;-58
2023/12/07 13:51:42;;;;;;;3.53;2.15;;;;;;;;;;4922994;29;20056;-58
2023/12/07 13:54:08;;;;;;;3.75;2.33;;;;;;;;;;4932338;29;20392;-58
2023/12/07 13:56:35;;;;;;;4.25;2.50;;;;;;;;;;4921562;29;20051;-58
2023/12/07 13:59:02;;;;;;;4.00;2.70;;;;;;;;;;4927389;29;20031;-59
2023/12/07 14:01:29;;;;;;;3.30;2.50;;;;;;;;;;4931249;29;20049;-58
2023/12/07 14:03:55;;;;;;;4.95;2.90;;;;;;;;;;4929442;29;20032;-57
2023/12/07 14:06:23;;;;;;;2.83;2.38;;;;;;;;;;4930352;29;20046;-57
2023/12/07 14:08:50;;;;;;;5.70;2.35;;;;;;;;;;4933563;29;20499;-57
2023/12/07 14:11:17;;;;;;;4.82;2.72;;;;;;;;;;4931592;29;20036;-57
2023/12/07 14:13:46;;;;;;;6.13;3.00;;;;;;;;;;4933250;29;20051;-58
2023/12/07 14:16:12;;;;;;;4.82;2.72;;;;;;;;;;4932671;29;20047;-58
2023/12/07 14:18:38;;;;;;;5.15;2.90;;;;;;;;;;4924496;29;20222;-58
2023/12/07 14:21:04;;;;;;;4.38;2.80;;;;;;;;;;4926182;29;20067;-59
2023/12/07 14:23:31;;;;;;;5.15;2.80;;;;;;;;;;4930298;29;20384;-57
2023/12/07 14:25:58;;;;;;;5.93;3.10;;;;;;;;;;4924723;29;20043;-57
2023/12/07 14:28:25;;;;;;;5.43;3.22;;;;;;;;;;4924228;29;20411;-58
2023/12/07 14:30:56;;;;;;;4.68;2.75;;;;;;;;;;4928419;29;20040;-58